Time;durP1;ratioP1;P1;durP2;ratioP2;P2;SDS_P1;SDS_P2;PMS_P1;PMS_P2;Temp;Humidity;BMP_temperature;BMP_pressure;BME280_temperature;BME280_humidity;BME280_pressure;Samples;Min_cycle;Max_cycle;Signal;HPM_P1;HPM_P2
2022/01/24 00:00:42;;;;;;;5.88;4.85;;;0.50;99.90;;;;;;5030487;28;20580;-74
2022/01/24 00:03:08;;;;;;;6.50;5.40;;;0.50;99.90;;;;;;5029461;28;20210;-73
2022/01/24 00:05:35;;;;;;;8.05;5.47;;;0.40;99.90;;;;;;5029651;28;20232;-73
2022/01/24 00:08:03;;;;;;;8.43;5.80;;;0.40;99.90;;;;;;5029394;28;20205;-73
2022/01/24 00:10:30;;;;;;;6.47;4.90;;;0.30;99.90;;;;;;5028431;28;20566;-73
2022/01/24 00:13:19;;;;;;;9.48;6.25;;;0.30;99.90;;;;;;5027432;28;20304;-74
2022/01/24 00:15:59;;;;;;;7.80;5.43;;;0.30;99.90;;;;;;5029719;28;20221;-73
2022/01/24 00:18:30;;;;;;;8.52;5.90;;;0.20;99.90;;;;;;5029884;28;20210;-74
2022/01/24 00:26:47;;;;;;;9.80;5.38;;;0.10;99.90;;;;;;5028011;28;20375;-73
2022/01/24 00:29:15;;;;;;;6.32;5.30;;;0.00;99.90;;;;;;5029687;28;20256;-73
2022/01/24 00:31:43;;;;;;;10.48;5.28;;;-0.10;99.90;;;;;;5028808;28;20687;-73
2022/01/24 00:34:10;;;;;;;6.32;5.50;;;-0.10;99.90;;;;;;5028960;28;21088;-73
2022/01/24 00:36:38;;;;;;;8.23;6.78;;;-0.10;99.90;;;;;;5029528;28;20744;-74
2022/01/24 00:39:06;;;;;;;7.18;5.30;;;-0.10;99.90;;;;;;5029727;28;20296;-73
2022/01/24 00:41:40;;;;;;;9.05;6.45;;;-0.10;99.90;;;;;;5029418;28;20240;-74
2022/01/24 00:44:30;;;;;;;7.20;5.10;;;-0.20;99.90;;;;;;5029014;28;20315;-73
2022/01/24 00:47:02;;;;;;;7.00;5.70;;;-0.20;99.90;;;;;;5029187;28;20228;-76
2022/01/24 00:49:47;;;;;;;7.10;5.45;;;-0.30;99.90;;;;;;5114951;22;20236;-76
2022/01/24 00:55:00;;;;;;;7.35;5.95;;;-0.40;99.90;;;;;;5049304;28;20585;-76
2022/01/24 00:57:26;;;;;;;9.70;5.90;;;-0.40;99.90;;;;;;5049486;28;20201;-76
2022/01/24 00:59:54;;;;;;;7.95;6.30;;;-0.40;99.90;;;;;;5049390;28;20215;-76
2022/01/24 01:02:22;;;;;;;7.97;6.10;;;-0.50;99.90;;;;;;5049784;28;20634;-76
2022/01/24 01:05:07;;;;;;;10.30;6.78;;;-0.50;99.90;;;;;;5049615;28;20228;-76
2022/01/24 01:07:39;;;;;;;7.90;6.18;;;-0.50;99.90;;;;;;5050029;28;20311;-76
2022/01/24 01:18:23;;;;;;;11.82;6.38;;;-0.60;99.90;;;;;;5049950;28;20204;-76
2022/01/24 01:21:07;;;;;;;6.30;5.50;;;-0.60;99.90;;;;;;5049402;28;20201;-76
2022/01/24 01:23:38;;;;;;;11.32;5.82;;;-0.60;99.90;;;;;;5049351;28;20688;-75
2022/01/24 01:26:10;;;;;;;8.15;6.22;;;-0.70;99.90;;;;;;5048981;28;20296;-76
2022/01/24 01:28:40;;;;;;;10.45;6.45;;;-0.70;99.90;;;;;;5050684;28;20208;-76
2022/01/24 01:31:13;;;;;;;10.13;6.68;;;-0.70;99.90;;;;;;5050727;28;20240;-76
2022/01/24 01:33:52;;;;;;;9.35;6.43;;;-0.80;99.90;;;;;;5050051;28;20247;-76
2022/01/24 01:36:25;;;;;;;10.07;6.97;;;-0.80;99.90;;;;;;5050682;28;20666;-76
2022/01/24 01:52:51;;;;;;;11.68;7.45;;;-0.90;99.90;;;;;;5049948;28;20208;-76
2022/01/24 01:55:36;;;;;;;12.18;7.40;;;-0.90;99.90;;;;;;5050465;28;20228;-76
2022/01/24 01:58:03;;;;;;;9.15;6.90;;;-0.90;99.90;;;;;;5050258;28;20214;-76
2022/01/24 02:00:30;;;;;;;11.80;7.85;;;-0.90;99.90;;;;;;5050390;28;20205;-75
2022/01/24 02:02:56;;;;;;;13.27;7.40;;;-0.90;99.90;;;;;;5049343;28;20568;-76
2022/01/24 02:05:24;;;;;;;8.98;7.03;;;-0.90;99.90;;;;;;5050257;28;20225;-75
2022/01/24 02:07:53;;;;;;;9.27;6.50;;;-0.90;99.90;;;;;;5049731;28;20221;-75
2022/01/24 02:10:22;;;;;;;9.40;6.78;;;-0.90;99.90;;;;;;5050190;28;20653;-75
2022/01/24 02:12:51;;;;;;;10.75;6.70;;;-1.00;99.90;;;;;;5049286;28;20197;-76
2022/01/24 02:15:24;;;;;;;11.48;7.85;;;-1.00;99.90;;;;;;5050010;28;20275;-76
2022/01/24 02:18:01;;;;;;;10.93;7.00;;;-1.00;99.90;;;;;;5049745;28;20201;-76
2022/01/24 02:20:54;;;;;;;8.40;6.85;;;-1.00;99.90;;;;;;5049549;28;20205;-76
2022/01/24 02:26:14;;;;;;;10.07;6.25;;;-1.00;99.90;;;;;;5048987;28;20320;-76
2022/01/24 02:29:00;;;;;;;10.45;7.45;;;-1.00;99.90;;;;;;5049744;28;20240;-76
2022/01/24 02:31:40;;;;;;;14.00;7.85;;;-1.00;99.90;;;;;;5049806;28;20213;-76
2022/01/24 02:34:32;;;;;;;12.68;7.10;;;-1.00;99.90;;;;;;5049046;28;20240;-76
2022/01/24 02:37:02;;;;;;;11.40;7.50;;;-1.10;99.90;;;;;;5052734;28;20208;-76
2022/01/24 02:39:49;;;;;;;11.95;7.38;;;-1.10;99.90;;;;;;5053421;28;20204;-76
2022/01/24 02:50:46;;;;;;;9.65;6.82;;;-1.10;99.90;;;;;;5053260;28;20687;-75
2022/01/24 02:53:13;;;;;;;8.80;7.45;;;-1.10;99.90;;;;;;5051659;28;20197;-75
2022/01/24 02:55:42;;;;;;;12.73;8.10;;;-1.10;99.90;;;;;;5052819;28;20221;-76
2022/01/24 02:58:09;;;;;;;13.57;7.95;;;-1.10;99.90;;;;;;5053039;28;20201;-75
2022/01/24 03:00:37;;;;;;;9.65;6.53;;;-1.20;99.90;;;;;;5052870;28;20208;-75
2022/01/24 03:03:04;;;;;;;10.43;7.55;;;-1.20;99.90;;;;;;5052191;28;20573;-75
2022/01/24 03:05:31;;;;;;;9.48;7.05;;;-1.20;99.90;;;;;;5052858;28;20636;-75
2022/01/24 03:07:58;;;;;;;10.15;8.10;;;-1.20;99.90;;;;;;5052559;28;20216;-75
2022/01/24 03:10:28;;;;;;;10.32;7.20;;;-1.20;99.90;;;;;;5052898;28;20205;-76
2022/01/24 03:13:10;;;;;;;11.00;8.15;;;-1.20;99.90;;;;;;5052076;28;20231;-76
2022/01/24 03:15:38;;;;;;;10.10;7.82;;;-1.30;99.90;;;;;;5052683;28;20224;-75
2022/01/24 03:18:05;;;;;;;12.10;7.95;;;-1.30;99.90;;;;;;5052619;28;20208;-76
2022/01/24 03:20:31;;;;;;;11.18;7.50;;;-1.30;99.90;;;;;;5052757;28;20664;-76
2022/01/24 03:22:58;;;;;;;13.15;7.85;;;-1.30;99.90;;;;;;5051730;28;20200;-76
2022/01/24 03:25:25;;;;;;;12.40;8.15;;;-1.20;99.90;;;;;;5052711;28;20217;-76
2022/01/24 03:27:52;;;;;;;12.38;8.13;;;-1.20;99.90;;;;;;5052129;28;20221;-76
2022/01/24 03:30:20;;;;;;;12.18;8.43;;;-1.20;99.90;;;;;;5052693;28;20201;-76
2022/01/24 03:32:47;;;;;;;9.60;7.32;;;-1.30;99.90;;;;;;5051950;28;20246;-76
2022/01/24 03:35:13;;;;;;;9.98;6.93;;;-1.30;99.90;;;;;;5052258;28;20574;-76
2022/01/24 03:37:40;;;;;;;10.18;7.53;;;-1.30;99.90;;;;;;5052240;28;20193;-75
2022/01/24 03:40:08;;;;;;;10.75;7.85;;;-1.30;99.90;;;;;;5052260;28;20668;-76
2022/01/24 03:42:35;;;;;;;10.13;7.05;;;-1.30;99.90;;;;;;5051804;28;20205;-75
2022/01/24 03:45:05;;;;;;;10.07;7.82;;;-1.30;99.90;;;;;;5051907;28;20221;-76
2022/01/24 03:47:45;;;;;;;10.70;7.10;;;-1.40;99.90;;;;;;5051707;28;20649;-76
2022/01/24 03:50:17;;;;;;;11.85;8.45;;;-1.40;99.90;;;;;;5052245;28;20209;-76
2022/01/24 03:52:44;;;;;;;10.93;7.20;;;-1.40;99.90;;;;;;5051714;28;20197;-76
2022/01/24 03:55:11;;;;;;;10.07;6.95;;;-1.40;99.90;;;;;;5051956;28;20236;-76
2022/01/24 03:57:38;;;;;;;11.68;7.63;;;-1.50;99.90;;;;;;5051887;28;20193;-76
2022/01/24 04:00:06;;;;;;;8.73;7.72;;;-1.50;99.90;;;;;;5051459;28;20201;-76
2022/01/24 04:02:35;;;;;;;9.73;7.25;;;-1.50;99.90;;;;;;5051538;28;20570;-76
2022/01/24 04:05:02;;;;;;;11.40;7.90;;;-1.50;99.90;;;;;;5051364;28;20221;-76
2022/01/24 04:07:28;;;;;;;9.48;7.65;;;-1.50;99.90;;;;;;5051771;28;20221;-76
2022/01/24 04:09:57;;;;;;;11.43;8.00;;;-1.50;99.90;;;;;;5049709;28;20197;-76
2022/01/24 04:12:26;;;;;;;10.90;8.18;;;-1.40;99.90;;;;;;5050625;28;20624;-76
2022/01/24 04:15:08;;;;;;;10.63;8.82;;;-1.40;99.90;;;;;;5050523;28;20252;-76
2022/01/24 04:17:40;;;;;;;11.35;8.02;;;-1.40;99.90;;;;;;5050450;28;20243;-76
2022/01/24 04:22:54;;;;;;;10.02;8.70;;;-1.50;99.90;;;;;;5049861;28;20243;-76
2022/01/24 04:25:23;;;;;;;9.32;6.97;;;-1.50;99.90;;;;;;5050338;28;20268;-76
2022/01/24 04:27:55;;;;;;;10.43;8.52;;;-1.50;99.90;;;;;;5050140;28;20636;-76
2022/01/24 04:30:22;;;;;;;9.80;7.30;;;-1.50;99.90;;;;;;5050473;28;20205;-76
2022/01/24 04:32:51;;;;;;;11.18;8.10;;;-1.60;99.90;;;;;;5048831;28;20193;-76
2022/01/24 04:35:17;;;;;;;9.90;7.70;;;-1.60;99.90;;;;;;5049495;28;20221;-76
2022/01/24 04:37:44;;;;;;;14.68;8.07;;;-1.60;99.90;;;;;;5049221;28;20190;-75
2022/01/24 04:40:12;;;;;;;11.20;8.40;;;-1.60;99.90;;;;;;5048959;28;20207;-75
2022/01/24 04:42:46;;;;;;;10.23;7.60;;;-1.60;99.90;;;;;;5048575;28;20683;-76
2022/01/24 04:45:49;;;;;;;13.02;8.95;;;-1.60;99.90;;;;;;5047750;28;20225;-75
2022/01/24 04:51:12;;;;;;;10.98;8.13;;;-1.60;99.90;;;;;;5047684;28;20208;-76
2022/01/24 04:54:26;;;;;;;11.98;8.18;;;-1.60;99.90;;;;;;5048415;28;20569;-75
2022/01/24 04:56:51;;;;;;;12.40;8.10;;;-1.70;99.90;;;;;;5047071;28;20185;-75
2022/01/24 04:59:18;;;;;;;14.90;9.48;;;-1.70;99.90;;;;;;5048703;28;20194;-75
2022/01/24 05:01:45;;;;;;;13.68;8.70;;;-1.70;99.90;;;;;;5049949;28;20197;-75
2022/01/24 05:04:13;;;;;;;12.25;8.40;;;-1.70;99.90;;;;;;5050236;28;20201;-75
2022/01/24 05:06:40;;;;;;;11.82;8.32;;;-1.70;99.90;;;;;;5049212;28;20209;-75
2022/01/24 05:09:07;;;;;;;14.70;9.23;;;-1.70;99.90;;;;;;5047667;28;20197;-75
2022/01/24 05:11:41;;;;;;;13.10;8.85;;;-1.80;99.90;;;;;;5049117;28;20197;-75
2022/01/24 05:25:07;;;;;;;14.50;10.15;;;-1.80;99.90;;;;;;5045143;28;20466;-75
2022/01/24 05:27:33;;;;;;;12.70;9.27;;;-1.80;99.90;;;;;;5049893;28;20229;-75
2022/01/24 05:30:00;;;;;;;15.70;9.43;;;-1.80;99.90;;;;;;5049545;28;20204;-75
2022/01/24 05:32:27;;;;;;;12.95;8.98;;;-1.80;99.90;;;;;;5049367;28;20716;-75
2022/01/24 05:34:55;;;;;;;12.32;9.27;;;-1.80;99.90;;;;;;5049372;28;20234;-75
2022/01/24 05:37:22;;;;;;;13.38;9.55;;;-1.80;99.90;;;;;;5049989;28;20205;-75
2022/01/24 05:39:48;;;;;;;13.95;8.70;;;-1.80;99.90;;;;;;5049961;28;20205;-75
2022/01/24 05:42:17;;;;;;;12.68;8.27;;;-1.80;99.90;;;;;;5049408;28;20201;-75
2022/01/24 05:44:44;;;;;;;12.45;8.57;;;-1.70;99.90;;;;;;5049687;28;20229;-75
2022/01/24 05:47:10;;;;;;;11.50;8.85;;;-1.80;99.90;;;;;;5049191;28;20233;-75
2022/01/24 05:49:37;;;;;;;11.15;9.15;;;-1.70;99.90;;;;;;5049706;28;20208;-75
2022/01/24 05:52:09;;;;;;;15.10;8.80;;;-1.70;99.90;;;;;;5049283;28;20213;-75
2022/01/24 05:54:36;;;;;;;13.73;9.27;;;-1.70;99.90;;;;;;5049330;28;20225;-74
2022/01/24 05:57:03;;;;;;;12.40;8.68;;;-1.70;99.90;;;;;;5050772;28;20247;-75
2022/01/24 05:59:30;;;;;;;13.65;9.40;;;-1.80;99.90;;;;;;5050355;28;20201;-75
2022/01/24 06:01:56;;;;;;;12.30;8.35;;;-1.80;99.90;;;;;;5049665;28;20697;-75
2022/01/24 06:04:23;;;;;;;10.75;8.05;;;-1.80;99.90;;;;;;5049320;28;20217;-75
2022/01/24 06:06:50;;;;;;;15.88;9.75;;;-1.80;99.90;;;;;;5049151;28;20573;-75
2022/01/24 06:09:18;;;;;;;10.88;8.30;;;-1.70;99.90;;;;;;5049144;28;20208;-75
2022/01/24 06:11:44;;;;;;;12.18;9.00;;;-1.70;99.90;;;;;;5051069;28;20201;-74
2022/01/24 06:14:11;;;;;;;14.05;9.00;;;-1.70;99.90;;;;;;5053043;28;20601;-74
2022/01/24 06:16:38;;;;;;;13.30;8.55;;;-1.70;99.90;;;;;;5053448;28;20236;-77
2022/01/24 06:19:05;;;;;;;14.18;8.73;;;-1.70;99.90;;;;;;5052665;28;20251;-76
2022/01/24 06:21:32;;;;;;;15.60;9.57;;;-1.80;99.90;;;;;;5053650;28;20577;-75
2022/01/24 06:23:59;;;;;;;17.08;8.63;;;-1.70;99.90;;;;;;5052365;28;20201;-75
2022/01/24 06:26:27;;;;;;;14.45;8.95;;;-1.70;99.90;;;;;;5051488;28;20197;-75
2022/01/24 06:28:53;;;;;;;13.05;9.02;;;-1.70;99.90;;;;;;5051165;28;20225;-75
2022/01/24 06:31:20;;;;;;;12.55;8.65;;;-1.70;99.90;;;;;;5053331;28;20201;-75
2022/01/24 06:33:48;;;;;;;15.23;10.82;;;-1.70;99.90;;;;;;5052044;28;20201;-75
2022/01/24 06:36:15;;;;;;;13.38;9.50;;;-1.80;99.90;;;;;;5052902;28;20278;-75
2022/01/24 06:38:41;;;;;;;14.45;9.43;;;-1.80;99.90;;;;;;5052836;28;20193;-75
2022/01/24 06:41:08;;;;;;;12.30;8.73;;;-1.80;99.90;;;;;;5052603;28;20647;-75
2022/01/24 06:43:37;;;;;;;10.63;8.10;;;-1.80;99.90;;;;;;5052413;28;20201;-75
2022/01/24 06:46:04;;;;;;;13.63;9.02;;;-1.80;99.90;;;;;;5052466;28;20225;-75
2022/01/24 06:51:05;;;;;;;12.45;8.90;;;-1.80;99.90;;;;;;5089923;28;20621;-73
2022/01/24 06:53:32;;;;;;;17.83;9.95;;;-1.80;99.90;;;;;;5092533;28;20709;-74
2022/01/24 06:55:59;;;;;;;13.95;9.50;;;-1.80;99.90;;;;;;5075404;28;20602;-73
2022/01/24 06:58:28;;;;;;;10.85;8.20;;;-1.80;99.90;;;;;;5072884;28;20660;-73
2022/01/24 07:00:56;;;;;;;14.95;9.05;;;-1.80;99.90;;;;;;5071160;28;20200;-73
2022/01/24 07:03:22;;;;;;;11.88;8.15;;;-1.80;99.90;;;;;;5071670;28;20659;-73
2022/01/24 07:05:49;;;;;;;10.13;7.93;;;-1.80;99.90;;;;;;5072804;28;20262;-74
2022/01/24 07:08:16;;;;;;;12.88;8.30;;;-1.90;99.90;;;;;;5073052;28;20231;-73
2022/01/24 07:10:43;;;;;;;13.35;8.65;;;-1.90;99.90;;;;;;5072157;28;20200;-73
2022/01/24 07:13:09;;;;;;;9.98;8.40;;;-1.80;99.90;;;;;;5072858;28;20223;-73
2022/01/24 07:15:44;;;;;;;12.77;8.95;;;-1.80;99.90;;;;;;5072993;28;20257;-74
2022/01/24 07:20:53;;;;;;;10.48;7.97;;;-1.80;99.90;;;;;;5058860;28;20765;-74
2022/01/24 07:23:20;;;;;;;13.32;8.65;;;-1.80;99.90;;;;;;5070379;28;20201;-74
2022/01/24 07:25:47;;;;;;;11.07;8.05;;;-1.80;99.90;;;;;;5073742;28;20224;-73
2022/01/24 07:28:15;;;;;;;13.18;8.43;;;-1.70;99.90;;;;;;5072942;28;20596;-73
2022/01/24 07:30:43;;;;;;;13.38;8.73;;;-1.70;99.90;;;;;;5072418;28;20207;-74
2022/01/24 07:33:14;;;;;;;12.88;8.23;;;-1.70;99.90;;;;;;5072073;28;20200;-73
2022/01/24 07:35:41;;;;;;;11.77;8.40;;;-1.70;99.90;;;;;;5074197;28;20647;-73
2022/01/24 07:38:08;;;;;;;8.60;7.60;;;-1.60;99.90;;;;;;5076112;28;20222;-73
2022/01/24 07:40:38;;;;;;;13.73;9.00;;;-1.60;99.90;;;;;;5082198;28;20667;-73
2022/01/24 07:43:12;;;;;;;12.30;9.10;;;-1.50;99.90;;;;;;5067605;28;20201;-73
2022/01/24 07:45:40;;;;;;;14.60;9.90;;;-1.40;99.90;;;;;;5068747;28;20592;-73
2022/01/24 07:48:08;;;;;;;14.25;8.45;;;-1.30;99.90;;;;;;5069972;28;20235;-73
2022/01/24 07:50:40;;;;;;;15.45;10.00;;;-1.20;99.90;;;;;;5070490;28;20592;-73
2022/01/24 07:53:08;;;;;;;12.70;9.98;;;-1.20;99.90;;;;;;5069823;28;20212;-73
2022/01/24 07:55:35;;;;;;;13.50;8.95;;;-1.10;99.90;;;;;;5070507;28;20217;-73
2022/01/24 07:58:02;;;;;;;12.80;9.10;;;-1.00;99.90;;;;;;5070214;28;20196;-73
2022/01/24 08:00:29;;;;;;;16.92;12.23;;;-0.90;99.90;;;;;;5070756;28;20210;-72
2022/01/24 08:02:57;;;;;;;14.43;10.05;;;-0.80;99.90;;;;;;5070558;28;20200;-73
2022/01/24 08:05:25;;;;;;;11.98;9.48;;;-0.80;99.90;;;;;;5071214;28;20277;-73
2022/01/24 08:07:53;;;;;;;14.25;10.10;;;-0.70;99.90;;;;;;5070290;28;20260;-72
2022/01/24 08:10:20;;;;;;;14.90;10.10;;;-0.60;99.90;;;;;;5071334;28;20206;-72
2022/01/24 08:12:47;;;;;;;15.98;10.13;;;-0.60;99.90;;;;;;5070319;28;20196;-73
2022/01/24 08:15:15;;;;;;;11.43;9.40;;;-0.40;99.90;;;;;;5070923;28;20301;-73
2022/01/24 08:17:42;;;;;;;14.85;9.70;;;-0.40;99.90;;;;;;5070659;28;20257;-75
2022/01/24 08:20:10;;;;;;;13.00;8.98;;;-0.30;99.90;;;;;;5070873;28;20200;-72
2022/01/24 08:22:37;;;;;;;16.75;9.77;;;-0.20;99.90;;;;;;5070099;28;20575;-73
2022/01/24 08:25:07;;;;;;;15.73;9.70;;;-0.20;99.90;;;;;;5070297;28;20589;-75
2022/01/24 08:27:37;;;;;;;16.05;10.70;;;0.00;99.90;;;;;;5070290;28;20228;-75
2022/01/24 08:30:06;;;;;;;14.35;10.43;;;0.10;99.90;;;;;;5070380;28;20204;-73
2022/01/24 08:32:33;;;;;;;12.38;9.68;;;0.20;99.90;;;;;;5070220;28;20231;-74
2022/01/24 08:35:00;;;;;;;13.45;10.00;;;0.30;99.90;;;;;;5070336;28;20220;-74
2022/01/24 08:37:33;;;;;;;14.15;9.73;;;0.40;99.90;;;;;;5070181;28;20559;-73
2022/01/24 08:40:00;;;;;;;13.95;10.27;;;0.40;99.90;;;;;;5060301;28;20208;-74
2022/01/24 08:42:35;;;;;;;14.93;11.30;;;0.50;99.90;;;;;;5068443;28;20691;-74
2022/01/24 08:47:47;;;;;;;19.50;11.60;;;0.80;99.90;;;;;;5059031;28;20252;-74
2022/01/24 08:50:14;;;;;;;18.80;12.77;;;0.90;99.90;;;;;;5070703;28;20208;-74
2022/01/24 08:52:41;;;;;;;13.93;11.10;;;1.00;99.90;;;;;;5069688;28;20196;-74
2022/01/24 08:55:09;;;;;;;17.52;12.27;;;1.20;99.90;;;;;;5070113;28;20567;-74
2022/01/24 08:57:37;;;;;;;15.00;11.90;;;1.30;99.90;;;;;;5069992;28;20247;-73
2022/01/24 09:00:07;;;;;;;15.30;10.63;;;1.60;99.90;;;;;;5070229;28;20209;-74
2022/01/24 09:02:35;;;;;;;15.23;11.07;;;1.80;99.90;;;;;;5069715;28;20720;-73
2022/01/24 09:05:02;;;;;;;15.85;11.35;;;2.10;99.90;;;;;;5069839;28;20220;-74
2022/01/24 09:07:30;;;;;;;14.15;11.10;;;2.50;99.90;;;;;;5069710;28;20631;-74
2022/01/24 09:09:57;;;;;;;15.40;10.52;;;3.50;99.90;;;;;;5069979;28;20772;-74
2022/01/24 09:12:24;;;;;;;14.05;9.50;;;5.30;99.90;;;;;;5069636;28;20611;-74
2022/01/24 09:14:52;;;;;;;9.30;8.32;;;7.90;99.90;;;;;;5063910;28;20217;-74
2022/01/24 09:17:19;;;;;;;11.13;7.70;;;10.90;99.90;;;;;;5068650;28;20211;-74
2022/01/24 09:19:46;;;;;;;10.02;7.95;;;13.30;99.90;;;;;;5068091;28;20564;-74
2022/01/24 09:22:13;;;;;;;12.18;7.88;;;15.10;97.80;;;;;;5066971;28;20216;-75
2022/01/24 09:24:40;;;;;;;8.10;7.40;;;16.70;95.90;;;;;;5060534;28;20240;-73
2022/01/24 09:27:07;;;;;;;8.57;7.67;;;18.00;93.20;;;;;;5087172;28;20680;-75
2022/01/24 09:29:34;;;;;;;9.47;6.80;;;19.00;91.50;;;;;;5088336;28;20924;-75
2022/01/24 09:32:02;;;;;;;7.23;6.53;;;19.50;90.20;;;;;;5088359;28;20461;-74
2022/01/24 09:34:29;;;;;;;7.40;6.50;;;20.20;89.20;;;;;;5087970;28;20478;-75
2022/01/24 09:36:56;;;;;;;7.20;6.50;;;20.30;86.60;;;;;;5065909;28;20466;-75
2022/01/24 09:39:23;;;;;;;6.80;6.07;;;20.50;86.10;;;;;;5068327;28;21160;-75
2022/01/24 09:41:49;;;;;;;6.37;5.77;;;20.80;84.30;;;;;;5065827;28;20458;-75
2022/01/24 09:44:16;;;;;;;6.37;5.87;;;21.00;83.70;;;;;;5067151;28;20470;-75
2022/01/24 09:46:44;;;;;;;5.87;5.40;;;20.70;82.90;;;;;;5067100;28;20834;-75
2022/01/24 09:49:12;;;;;;;6.30;5.80;;;20.20;81.00;;;;;;5067153;28;20535;-74
2022/01/24 09:51:39;;;;;;;9.40;5.20;;;19.50;81.40;;;;;;5068114;28;20489;-75
2022/01/24 09:54:07;;;;;;;6.30;5.80;;;19.40;82.00;;;;;;5068485;28;20545;-75
2022/01/24 09:56:34;;;;;;;6.17;5.60;;;19.40;81.60;;;;;;5066984;28;20458;-75
2022/01/24 09:59:02;;;;;;;5.30;4.83;;;19.70;83.50;;;;;;5067025;28;21022;-74
2022/01/24 10:01:30;;;;;;;5.43;5.03;;;20.20;81.70;;;;;;5067400;28;20470;-74
2022/01/24 10:04:15;;;;;;;5.87;5.30;;;20.00;79.30;;;;;;5067155;28;20549;-74
2022/01/24 10:07:04;;;;;;;5.60;5.07;;;18.90;81.10;;;;;;5067315;28;20470;-75
2022/01/24 10:09:33;;;;;;;5.90;5.40;;;18.40;81.70;;;;;;5067836;28;20488;-74
2022/01/24 10:12:14;;;;;;;5.77;5.23;;;18.70;83.90;;;;;;5067762;28;21083;-75
2022/01/24 10:17:28;;;;;;;5.70;5.20;;;19.50;79.40;;;;;;5068509;28;20442;-74
2022/01/24 10:19:56;;;;;;;5.27;4.43;;;19.50;81.10;;;;;;5066972;28;20466;-73
2022/01/24 10:22:24;;;;;;;5.93;5.43;;;19.70;79.30;;;;;;5067347;28;20819;-73
2022/01/24 10:24:54;;;;;;;6.00;5.40;;;20.20;82.40;;;;;;5045855;28;21066;-74
2022/01/24 10:27:24;;;;;;;6.60;6.00;;;21.00;80.70;;;;;;5060263;28;20467;-74
2022/01/24 10:29:53;;;;;;;5.23;4.83;;;21.30;78.40;;;;;;5063452;28;20505;-73
2022/01/24 10:32:34;;;;;;;5.63;4.93;;;21.50;80.40;;;;;;5067573;28;20466;-74
2022/01/24 10:35:28;;;;;;;5.00;4.60;;;22.10;78.80;;;;;;5066861;28;20482;-73
2022/01/24 10:38:16;;;;;;;4.83;4.43;;;22.40;77.20;;;;;;5067408;28;21142;-74
2022/01/24 10:40:50;;;;;;;5.47;4.97;;;22.60;75.60;;;;;;5067677;28;20489;-73
2022/01/24 10:43:19;;;;;;;5.10;4.57;;;22.30;75.50;;;;;;5066752;28;20546;-74
2022/01/24 10:45:47;;;;;;;4.93;4.43;;;22.30;76.40;;;;;;5067086;28;20478;-73
2022/01/24 10:48:14;;;;;;;5.93;5.10;;;22.90;75.50;;;;;;5067787;28;20462;-74
2022/01/24 10:50:42;;;;;;;5.20;4.77;;;23.00;76.20;;;;;;5064278;28;20481;-73
2022/01/24 10:53:14;;;;;;;4.67;4.30;;;23.50;73.70;;;;;;5086807;28;20462;-74
2022/01/24 10:55:43;;;;;;;5.23;4.80;;;24.30;74.60;;;;;;5087605;28;20513;-74
2022/01/24 10:58:15;;;;;;;4.70;4.30;;;23.30;73.10;;;;;;5091911;28;20968;-74
2022/01/24 11:00:42;;;;;;;5.30;4.80;;;22.60;73.50;;;;;;5090601;28;20559;-74
2022/01/24 11:03:15;;;;;;;4.33;3.93;;;23.00;73.70;;;;;;5091129;28;20460;-73
2022/01/24 11:05:44;;;;;;;4.53;4.13;;;22.60;72.70;;;;;;5089535;28;20875;-75
2022/01/24 11:08:12;;;;;;;4.77;3.90;;;22.10;72.80;;;;;;5091785;28;20564;-75
2022/01/24 11:10:41;;;;;;;5.37;4.87;;;22.00;73.70;;;;;;5091930;28;20945;-75
2022/01/24 11:13:08;;;;;;;4.90;4.40;;;21.60;75.40;;;;;;5091684;28;20524;-75
2022/01/24 11:15:38;;;;;;;5.07;4.67;;;21.80;75.40;;;;;;5091077;28;20488;-75
2022/01/24 11:18:05;;;;;;;4.83;4.07;;;22.20;72.60;;;;;;5078856;28;20458;-74
2022/01/24 11:20:35;;;;;;;4.90;4.50;;;21.70;75.90;;;;;;5071390;28;20815;-74
2022/01/24 11:23:05;;;;;;;5.47;4.07;;;21.80;75.10;;;;;;5071499;28;20463;-75
2022/01/24 11:25:34;;;;;;;4.90;4.50;;;21.60;74.50;;;;;;5071435;28;20478;-74
2022/01/24 11:28:02;;;;;;;4.90;4.50;;;21.10;75.70;;;;;;5071316;28;20462;-75
2022/01/24 11:30:34;;;;;;;5.27;4.77;;;21.30;75.80;;;;;;5071135;28;21024;-75
2022/01/24 11:33:05;;;;;;;4.60;4.20;;;21.60;74.80;;;;;;5071267;28;20467;-74
2022/01/24 11:35:35;;;;;;;5.40;4.90;;;21.80;75.80;;;;;;5069557;28;20855;-74
2022/01/24 11:38:04;;;;;;;5.40;5.00;;;21.20;75.70;;;;;;5072195;28;20463;-74
2022/01/24 11:40:46;;;;;;;5.60;5.10;;;21.20;74.70;;;;;;5071466;28;20455;-75
2022/01/24 11:43:26;;;;;;;4.93;4.53;;;20.90;73.80;;;;;;5071154;28;20473;-74
2022/01/24 11:46:01;;;;;;;4.77;4.37;;;21.00;75.10;;;;;;5070822;28;20486;-74
2022/01/24 11:48:28;;;;;;;6.10;5.50;;;20.60;75.40;;;;;;5071306;28;20462;-74
2022/01/24 11:50:58;;;;;;;5.70;5.20;;;20.40;75.80;;;;;;5070503;28;21004;-74
2022/01/24 11:53:29;;;;;;;5.57;4.83;;;19.90;75.60;;;;;;5070830;28;20528;-74
2022/01/24 11:55:56;;;;;;;5.40;4.90;;;19.30;76.70;;;;;;5070374;28;20478;-75
2022/01/24 11:58:27;;;;;;;5.87;5.00;;;18.90;77.50;;;;;;5070777;28;20470;-74
2022/01/24 12:00:56;;;;;;;5.83;5.23;;;19.20;77.80;;;;;;5071628;28;20466;-73
2022/01/24 12:03:26;;;;;;;4.90;4.50;;;19.20;77.10;;;;;;5070017;28;20485;-73
2022/01/24 12:05:56;;;;;;;4.83;4.43;;;18.70;76.90;;;;;;5070494;28;20569;-73
2022/01/24 12:08:33;;;;;;;5.30;3.97;;;18.10;78.00;;;;;;5071169;28;21060;-74
2022/01/24 12:11:14;;;;;;;4.60;4.17;;;17.70;79.40;;;;;;5070139;28;20466;-74
2022/01/24 12:13:43;;;;;;;6.50;4.47;;;18.10;79.50;;;;;;5070896;28;20515;-74
2022/01/24 12:16:12;;;;;;;4.73;4.33;;;18.50;78.90;;;;;;5070542;28;20573;-74
2022/01/24 12:18:59;;;;;;;6.47;4.47;;;18.90;78.10;;;;;;5070567;28;20458;-74
2022/01/24 12:21:28;;;;;;;4.70;4.27;;;19.10;78.50;;;;;;5070626;28;20917;-73
2022/01/24 12:23:59;;;;;;;4.77;4.37;;;19.30;77.80;;;;;;5070142;28;20949;-75
2022/01/24 12:26:31;;;;;;;4.73;4.23;;;19.10;77.70;;;;;;5070323;28;20481;-74
2022/01/24 12:29:03;;;;;;;4.43;3.77;;;18.70;77.80;;;;;;5070202;28;20478;-74
2022/01/24 12:31:37;;;;;;;4.30;3.90;;;18.60;78.70;;;;;;5070844;28;20528;-73
2022/01/24 12:34:26;;;;;;;4.33;3.93;;;18.50;79.00;;;;;;5069487;28;20465;-75
2022/01/24 12:37:00;;;;;;;5.23;4.53;;;18.10;79.20;;;;;;5070205;28;20470;-73
2022/01/24 12:39:33;;;;;;;4.50;4.10;;;17.80;80.00;;;;;;5070255;28;20497;-73
2022/01/24 12:42:04;;;;;;;6.83;4.10;;;17.70;80.30;;;;;;5070310;28;20450;-74
2022/01/24 12:47:19;;;;;;;4.40;4.00;;;17.50;80.80;;;;;;5052206;28;21000;-74
2022/01/24 12:49:49;;;;;;;6.53;4.30;;;17.10;81.30;;;;;;5069183;28;20479;-74
2022/01/24 12:52:19;;;;;;;4.63;4.23;;;16.60;81.90;;;;;;5069733;28;20565;-73
2022/01/24 12:58:35;;;;;;;7.60;4.20;;;16.20;82.50;;;;;;5049140;28;20471;-95
2022/01/24 13:24:05;;;;;;;4.10;3.20;;;15.60;84.10;;;;;;5053900;28;20442;-92
2022/01/24 13:26:47;;;;;;;3.60;3.30;;;15.50;84.40;;;;;;5059818;28;20473;-92
2022/01/24 13:29:22;;;;;;;4.50;4.10;;;15.30;84.60;;;;;;5051091;28;20893;-92
2022/01/24 13:35:51;;;;;;;5.60;4.27;;;15.50;84.70;;;;;;5061920;28;20475;-92
2022/01/24 13:41:54;;;;;;;4.33;3.23;;;15.50;83.80;;;;;;5060426;28;20445;-92
2022/01/24 13:44:46;;;;;;;5.23;3.67;;;15.00;84.90;;;;;;5021690;28;20563;-92
2022/01/24 13:50:19;;;;;;;3.33;3.03;;;15.00;85.20;;;;;;5055052;28;20466;-92
2022/01/24 13:53:36;;;;;;;5.27;3.13;;;15.00;85.30;;;;;;5060037;28;20498;-91
2022/01/24 13:56:31;;;;;;;7.10;3.37;;;14.80;85.20;;;;;;5047203;28;20487;-91
2022/01/24 13:59:26;;;;;;;4.07;3.40;;;14.40;85.70;;;;;;5057160;28;20571;-92
2022/01/24 14:02:15;;;;;;;4.50;3.37;;;14.10;86.30;;;;;;5059048;28;20475;-92
2022/01/24 14:05:09;;;;;;;4.07;3.20;;;13.60;87.30;;;;;;5075505;28;20495;-91
2022/01/24 14:07:41;;;;;;;3.67;3.25;;;12.90;88.30;;;;;;5076598;28;20511;-91
2022/01/24 14:10:40;;;;;;;6.10;3.80;;;12.10;90.00;;;;;;5076492;28;20205;-91
2022/01/24 14:13:08;;;;;;;4.30;3.40;;;11.50;90.70;;;;;;5066017;22;20767;-78
2022/01/24 14:15:43;;;;;;;6.28;3.25;;;10.90;91.50;;;;;;5052303;28;20296;-77
2022/01/24 14:18:26;;;;;;;4.78;3.63;;;10.40;92.10;;;;;;5052876;28;20211;-78
2022/01/24 14:20:54;;;;;;;3.75;3.35;;;9.90;93.30;;;;;;5052515;28;20228;-77
2022/01/24 14:23:26;;;;;;;4.68;3.58;;;9.60;93.60;;;;;;5052245;28;20342;-77
2022/01/24 14:25:53;;;;;;;9.95;3.53;;;9.30;93.90;;;;;;5053890;28;20217;-78
2022/01/24 14:28:23;;;;;;;4.60;3.15;;;9.00;94.40;;;;;;5057783;28;20850;-79
2022/01/24 14:30:54;;;;;;;4.80;3.15;;;8.80;94.70;;;;;;5054589;28;20287;-75
2022/01/24 14:33:29;;;;;;;6.85;3.80;;;8.60;95.00;;;;;;5056224;28;20197;-78
2022/01/24 14:35:59;;;;;;;5.32;3.53;;;8.30;95.60;;;;;;5059009;28;20311;-78
2022/01/24 14:38:44;;;;;;;6.65;3.72;;;8.10;96.20;;;;;;5057656;28;20201;-76
2022/01/24 14:41:15;;;;;;;3.17;2.88;;;7.80;96.60;;;;;;5057753;28;20589;-76
2022/01/24 14:46:29;;;;;;;3.70;3.35;;;7.70;97.00;;;;;;5058895;28;20290;-76
2022/01/24 14:48:59;;;;;;;4.30;3.35;;;7.60;97.00;;;;;;5057237;28;20208;-77
2022/01/24 14:51:29;;;;;;;4.57;3.65;;;7.70;97.10;;;;;;5058536;28;20220;-75
2022/01/24 14:54:00;;;;;;;5.50;3.78;;;8.00;96.90;;;;;;5058041;28;20648;-78